sensor_id;sensor_type;location;lat;lon;timestamp;temperature;humidity
9103;DHT22;4587;51.434;6.788;2022-12-29T00:01:26;11.80;99.90
9103;DHT22;4587;51.434;6.788;2022-12-29T00:03:52;11.80;99.90
9103;DHT22;4587;51.434;6.788;2022-12-29T00:06:18;11.90;99.90
9103;DHT22;4587;51.434;6.788;2022-12-29T00:08:46;11.90;99.90
9103;DHT22;4587;51.434;6.788;2022-12-29T00:11:16;11.80;99.90
9103;DHT22;4587;51.434;6.788;2022-12-29T00:13:43;11.80;99.90
9103;DHT22;4587;51.434;6.788;2022-12-29T00:16:28;11.70;99.90
9103;DHT22;4587;51.434;6.788;2022-12-29T00:18:54;11.70;99.90
9103;DHT22;4587;51.434;6.788;2022-12-29T00:21:21;11.70;99.90
9103;DHT22;4587;51.434;6.788;2022-12-29T00:24:06;11.60;99.90
9103;DHT22;4587;51.434;6.788;2022-12-29T00:27:10;11.60;99.90
9103;DHT22;4587;51.434;6.788;2022-12-29T00:29:55;11.60;99.90
9103;DHT22;4587;51.434;6.788;2022-12-29T00:32:39;11.70;99.90
9103;DHT22;4587;51.434;6.788;2022-12-29T00:35:29;11.70;99.90
9103;DHT22;4587;51.434;6.788;2022-12-29T00:37:58;11.60;99.90
9103;DHT22;4587;51.434;6.788;2022-12-29T00:40:43;11.70;99.90
9103;DHT22;4587;51.434;6.788;2022-12-29T00:43:27;11.80;99.90
9103;DHT22;4587;51.434;6.788;2022-12-29T00:46:11;11.80;99.90
9103;DHT22;4587;51.434;6.788;2022-12-29T00:48:36;11.80;99.90
9103;DHT22;4587;51.434;6.788;2022-12-29T00:51:20;11.80;99.90
9103;DHT22;4587;51.434;6.788;2022-12-29T00:53:46;11.80;99.90
9103;DHT22;4587;51.434;6.788;2022-12-29T00:56:11;11.80;99.90
9103;DHT22;4587;51.434;6.788;2022-12-29T00:58:37;11.80;99.90
9103;DHT22;4587;51.434;6.788;2022-12-29T01:01:08;11.70;99.90
9103;DHT22;4587;51.434;6.788;2022-12-29T01:03:37;11.70;99.90
9103;DHT22;4587;51.434;6.788;2022-12-29T01:06:05;11.60;99.90
9103;DHT22;4587;51.434;6.788;2022-12-29T01:08:31;11.60;99.90
9103;DHT22;4587;51.434;6.788;2022-12-29T01:11:01;11.60;99.90
9103;DHT22;4587;51.434;6.788;2022-12-29T01:13:27;11.50;99.90
9103;DHT22;4587;51.434;6.788;2022-12-29T01:15:53;11.60;99.90
9103;DHT22;4587;51.434;6.788;2022-12-29T01:18:19;11.60;99.90
9103;DHT22;4587;51.434;6.788;2022-12-29T01:20:45;11.60;99.90
9103;DHT22;4587;51.434;6.788;2022-12-29T01:23:10;11.60;99.90
9103;DHT22;4587;51.434;6.788;2022-12-29T01:25:36;11.70;99.90
9103;DHT22;4587;51.434;6.788;2022-12-29T01:28:02;11.70;99.90
9103;DHT22;4587;51.434;6.788;2022-12-29T01:30:27;11.80;99.90
9103;DHT22;4587;51.434;6.788;2022-12-29T01:32:53;11.90;99.90
9103;DHT22;4587;51.434;6.788;2022-12-29T01:35:18;12.00;99.90
9103;DHT22;4587;51.434;6.788;2022-12-29T01:37:44;12.00;99.90
9103;DHT22;4587;51.434;6.788;2022-12-29T01:40:10;11.90;99.90
9103;DHT22;4587;51.434;6.788;2022-12-29T01:42:35;12.00;99.90
9103;DHT22;4587;51.434;6.788;2022-12-29T01:45:15;12.10;99.90
9103;DHT22;4587;51.434;6.788;2022-12-29T01:48:02;12.10;99.90
9103;DHT22;4587;51.434;6.788;2022-12-29T01:50:32;12.10;99.90
9103;DHT22;4587;51.434;6.788;2022-12-29T01:53:10;12.10;99.90
9103;DHT22;4587;51.434;6.788;2022-12-29T01:55:41;12.10;99.90
9103;DHT22;4587;51.434;6.788;2022-12-29T01:58:09;12.10;99.90
9103;DHT22;4587;51.434;6.788;2022-12-29T02:00:37;12.20;99.90
9103;DHT22;4587;51.434;6.788;2022-12-29T02:03:03;12.20;99.90
9103;DHT22;4587;51.434;6.788;2022-12-29T02:05:34;12.20;99.90
9103;DHT22;4587;51.434;6.788;2022-12-29T02:08:02;12.30;99.90
9103;DHT22;4587;51.434;6.788;2022-12-29T02:10:30;12.30;99.90
9103;DHT22;4587;51.434;6.788;2022-12-29T02:12:56;12.30;99.90
9103;DHT22;4587;51.434;6.788;2022-12-29T02:26:42;12.30;99.90
9103;DHT22;4587;51.434;6.788;2022-12-29T02:32:10;12.30;99.90
9103;DHT22;4587;51.434;6.788;2022-12-29T02:34:47;12.20;99.90
9103;DHT22;4587;51.434;6.788;2022-12-29T02:37:30;12.30;99.90
9103;DHT22;4587;51.434;6.788;2022-12-29T02:42:54;12.30;99.90
9103;DHT22;4587;51.434;6.788;2022-12-29T02:45:38;12.30;99.90
9103;DHT22;4587;51.434;6.788;2022-12-29T02:48:15;12.40;99.90
9103;DHT22;4587;51.434;6.788;2022-12-29T02:50:49;12.40;99.90
9103;DHT22;4587;51.434;6.788;2022-12-29T02:53:17;12.40;99.90
9103;DHT22;4587;51.434;6.788;2022-12-29T02:56:05;12.40;99.90
9103;DHT22;4587;51.434;6.788;2022-12-29T02:58:30;12.40;99.90
9103;DHT22;4587;51.434;6.788;2022-12-29T03:06:43;12.40;99.90
9103;DHT22;4587;51.434;6.788;2022-12-29T03:15:23;12.40;99.90
9103;DHT22;4587;51.434;6.788;2022-12-29T03:18:25;12.30;99.90
9103;DHT22;4587;51.434;6.788;2022-12-29T03:20:59;12.30;99.90
9103;DHT22;4587;51.434;6.788;2022-12-29T03:23:27;12.30;99.90
9103;DHT22;4587;51.434;6.788;2022-12-29T03:25:56;12.30;99.90
9103;DHT22;4587;51.434;6.788;2022-12-29T03:28:27;12.30;99.90
9103;DHT22;4587;51.434;6.788;2022-12-29T03:30:54;12.40;99.90
9103;DHT22;4587;51.434;6.788;2022-12-29T03:33:23;12.20;99.90
9103;DHT22;4587;51.434;6.788;2022-12-29T03:35:51;12.40;99.90
9103;DHT22;4587;51.434;6.788;2022-12-29T03:38:27;12.40;99.90
9103;DHT22;4587;51.434;6.788;2022-12-29T03:40:57;12.40;99.90
9103;DHT22;4587;51.434;6.788;2022-12-29T03:43:24;12.50;99.90
9103;DHT22;4587;51.434;6.788;2022-12-29T03:45:50;12.50;99.90
9103;DHT22;4587;51.434;6.788;2022-12-29T03:48:16;12.50;99.90
9103;DHT22;4587;51.434;6.788;2022-12-29T03:50:41;12.50;99.90
9103;DHT22;4587;51.434;6.788;2022-12-29T03:53:07;12.50;99.90
9103;DHT22;4587;51.434;6.788;2022-12-29T03:55:32;12.50;99.90
9103;DHT22;4587;51.434;6.788;2022-12-29T03:57:58;12.40;99.90
9103;DHT22;4587;51.434;6.788;2022-12-29T04:00:24;12.50;99.90
9103;DHT22;4587;51.434;6.788;2022-12-29T04:02:49;12.40;99.90
9103;DHT22;4587;51.434;6.788;2022-12-29T04:05:15;12.40;99.90
9103;DHT22;4587;51.434;6.788;2022-12-29T04:07:40;12.40;99.90
9103;DHT22;4587;51.434;6.788;2022-12-29T04:10:06;12.40;99.90
9103;DHT22;4587;51.434;6.788;2022-12-29T04:12:32;12.40;99.90
9103;DHT22;4587;51.434;6.788;2022-12-29T04:14:57;12.40;99.90
9103;DHT22;4587;51.434;6.788;2022-12-29T04:17:23;12.30;99.90
9103;DHT22;4587;51.434;6.788;2022-12-29T04:19:48;12.40;99.90
9103;DHT22;4587;51.434;6.788;2022-12-29T04:22:14;12.50;99.90
9103;DHT22;4587;51.434;6.788;2022-12-29T04:24:39;12.40;99.90
9103;DHT22;4587;51.434;6.788;2022-12-29T04:27:05;12.50;99.90
9103;DHT22;4587;51.434;6.788;2022-12-29T04:29:31;12.50;99.90
9103;DHT22;4587;51.434;6.788;2022-12-29T04:31:56;12.60;99.90
9103;DHT22;4587;51.434;6.788;2022-12-29T04:34:22;12.60;99.90
9103;DHT22;4587;51.434;6.788;2022-12-29T04:36:48;12.60;99.90
9103;DHT22;4587;51.434;6.788;2022-12-29T04:39:13;12.60;99.90
9103;DHT22;4587;51.434;6.788;2022-12-29T04:41:39;12.50;99.90
9103;DHT22;4587;51.434;6.788;2022-12-29T04:44:04;12.60;99.90
9103;DHT22;4587;51.434;6.788;2022-12-29T04:46:30;12.60;99.90
9103;DHT22;4587;51.434;6.788;2022-12-29T04:48:55;12.70;99.90
9103;DHT22;4587;51.434;6.788;2022-12-29T04:51:21;12.70;99.90
9103;DHT22;4587;51.434;6.788;2022-12-29T04:53:47;12.60;99.90
9103;DHT22;4587;51.434;6.788;2022-12-29T04:56:13;12.60;99.90
9103;DHT22;4587;51.434;6.788;2022-12-29T04:58:39;12.50;99.90
9103;DHT22;4587;51.434;6.788;2022-12-29T05:01:04;12.60;99.90
9103;DHT22;4587;51.434;6.788;2022-12-29T05:03:30;12.70;99.90
9103;DHT22;4587;51.434;6.788;2022-12-29T05:05:57;12.70;99.90
9103;DHT22;4587;51.434;6.788;2022-12-29T05:08:23;12.70;99.90
9103;DHT22;4587;51.434;6.788;2022-12-29T05:10:50;12.70;99.90
9103;DHT22;4587;51.434;6.788;2022-12-29T05:13:16;12.90;99.90
9103;DHT22;4587;51.434;6.788;2022-12-29T05:15:47;12.70;99.90
9103;DHT22;4587;51.434;6.788;2022-12-29T05:18:14;12.80;99.90
9103;DHT22;4587;51.434;6.788;2022-12-29T05:20:40;12.80;99.90
9103;DHT22;4587;51.434;6.788;2022-12-29T05:23:05;12.30;99.90
9103;DHT22;4587;51.434;6.788;2022-12-29T05:25:31;12.80;99.90
9103;DHT22;4587;51.434;6.788;2022-12-29T05:27:56;12.80;99.90
9103;DHT22;4587;51.434;6.788;2022-12-29T05:30:22;12.70;99.90
9103;DHT22;4587;51.434;6.788;2022-12-29T05:32:47;12.80;99.90
9103;DHT22;4587;51.434;6.788;2022-12-29T05:35:13;12.80;99.90
9103;DHT22;4587;51.434;6.788;2022-12-29T05:37:38;12.70;99.90
9103;DHT22;4587;51.434;6.788;2022-12-29T05:40:04;12.70;99.90
9103;DHT22;4587;51.434;6.788;2022-12-29T05:42:30;12.60;99.90
9103;DHT22;4587;51.434;6.788;2022-12-29T05:44:56;12.60;99.90
9103;DHT22;4587;51.434;6.788;2022-12-29T05:47:21;12.60;99.90
9103;DHT22;4587;51.434;6.788;2022-12-29T05:49:47;12.50;99.90
9103;DHT22;4587;51.434;6.788;2022-12-29T05:52:12;12.50;99.90
9103;DHT22;4587;51.434;6.788;2022-12-29T05:54:38;12.40;99.90
9103;DHT22;4587;51.434;6.788;2022-12-29T05:57:03;12.40;99.90
9103;DHT22;4587;51.434;6.788;2022-12-29T05:59:29;12.40;99.90
9103;DHT22;4587;51.434;6.788;2022-12-29T06:01:54;12.30;99.90
9103;DHT22;4587;51.434;6.788;2022-12-29T06:04:20;12.30;99.90
9103;DHT22;4587;51.434;6.788;2022-12-29T06:06:45;12.10;99.90
9103;DHT22;4587;51.434;6.788;2022-12-29T06:09:11;12.10;99.90
9103;DHT22;4587;51.434;6.788;2022-12-29T06:11:36;12.10;99.90
9103;DHT22;4587;51.434;6.788;2022-12-29T06:14:02;12.10;99.90
9103;DHT22;4587;51.434;6.788;2022-12-29T06:16:28;12.10;99.90
9103;DHT22;4587;51.434;6.788;2022-12-29T06:18:53;12.10;99.90
9103;DHT22;4587;51.434;6.788;2022-12-29T06:21:19;11.90;99.90
9103;DHT22;4587;51.434;6.788;2022-12-29T06:23:45;11.90;99.90
9103;DHT22;4587;51.434;6.788;2022-12-29T06:26:10;11.90;99.90
9103;DHT22;4587;51.434;6.788;2022-12-29T06:28:36;11.80;99.90
9103;DHT22;4587;51.434;6.788;2022-12-29T06:31:01;11.70;99.90
9103;DHT22;4587;51.434;6.788;2022-12-29T06:33:28;11.80;99.90
9103;DHT22;4587;51.434;6.788;2022-12-29T06:35:54;11.70;99.90
9103;DHT22;4587;51.434;6.788;2022-12-29T06:38:19;11.80;99.90
9103;DHT22;4587;51.434;6.788;2022-12-29T06:40:45;11.90;99.90
9103;DHT22;4587;51.434;6.788;2022-12-29T06:43:10;11.80;99.90
9103;DHT22;4587;51.434;6.788;2022-12-29T06:45:38;12.00;99.90
9103;DHT22;4587;51.434;6.788;2022-12-29T06:48:04;11.90;99.90
9103;DHT22;4587;51.434;6.788;2022-12-29T06:50:30;11.90;99.90
9103;DHT22;4587;51.434;6.788;2022-12-29T06:52:56;12.00;99.90
9103;DHT22;4587;51.434;6.788;2022-12-29T06:55:21;12.00;99.90
9103;DHT22;4587;51.434;6.788;2022-12-29T06:57:47;12.00;99.90
9103;DHT22;4587;51.434;6.788;2022-12-29T07:00:13;12.00;99.90
9103;DHT22;4587;51.434;6.788;2022-12-29T07:02:39;12.10;99.90
9103;DHT22;4587;51.434;6.788;2022-12-29T07:05:04;12.00;99.90
9103;DHT22;4587;51.434;6.788;2022-12-29T07:07:30;12.20;99.90
9103;DHT22;4587;51.434;6.788;2022-12-29T07:09:56;12.10;99.90
9103;DHT22;4587;51.434;6.788;2022-12-29T07:12:21;12.20;99.90
9103;DHT22;4587;51.434;6.788;2022-12-29T07:14:47;12.20;99.90
9103;DHT22;4587;51.434;6.788;2022-12-29T07:17:12;12.20;99.90
9103;DHT22;4587;51.434;6.788;2022-12-29T07:19:38;12.20;99.90
9103;DHT22;4587;51.434;6.788;2022-12-29T07:22:03;12.20;99.90
9103;DHT22;4587;51.434;6.788;2022-12-29T07:24:29;12.20;99.90
9103;DHT22;4587;51.434;6.788;2022-12-29T07:26:55;12.20;99.90
9103;DHT22;4587;51.434;6.788;2022-12-29T07:29:20;12.10;99.90
9103;DHT22;4587;51.434;6.788;2022-12-29T07:31:46;12.10;99.90
9103;DHT22;4587;51.434;6.788;2022-12-29T07:34:11;12.20;99.90
9103;DHT22;4587;51.434;6.788;2022-12-29T07:36:37;12.20;99.90
9103;DHT22;4587;51.434;6.788;2022-12-29T07:39:03;12.20;99.90
9103;DHT22;4587;51.434;6.788;2022-12-29T07:41:29;12.20;99.90
9103;DHT22;4587;51.434;6.788;2022-12-29T07:43:54;12.20;99.90
9103;DHT22;4587;51.434;6.788;2022-12-29T07:46:20;12.20;99.90
9103;DHT22;4587;51.434;6.788;2022-12-29T07:48:45;12.20;99.90
9103;DHT22;4587;51.434;6.788;2022-12-29T07:51:11;12.20;99.90
9103;DHT22;4587;51.434;6.788;2022-12-29T07:53:36;12.20;99.90
9103;DHT22;4587;51.434;6.788;2022-12-29T07:56:02;12.20;99.90
9103;DHT22;4587;51.434;6.788;2022-12-29T07:58:28;12.30;99.90
9103;DHT22;4587;51.434;6.788;2022-12-29T08:00:57;12.20;99.90
9103;DHT22;4587;51.434;6.788;2022-12-29T08:03:23;12.20;99.90
9103;DHT22;4587;51.434;6.788;2022-12-29T08:05:50;12.20;99.90
9103;DHT22;4587;51.434;6.788;2022-12-29T08:08:15;12.10;99.90
9103;DHT22;4587;51.434;6.788;2022-12-29T08:10:41;12.10;99.90
9103;DHT22;4587;51.434;6.788;2022-12-29T08:13:06;12.10;99.90
9103;DHT22;4587;51.434;6.788;2022-12-29T08:15:32;12.20;99.90
9103;DHT22;4587;51.434;6.788;2022-12-29T08:17:58;12.20;99.90
9103;DHT22;4587;51.434;6.788;2022-12-29T08:20:24;12.20;99.90
9103;DHT22;4587;51.434;6.788;2022-12-29T08:22:50;12.10;99.90
9103;DHT22;4587;51.434;6.788;2022-12-29T08:25:16;12.20;99.90
9103;DHT22;4587;51.434;6.788;2022-12-29T08:27:41;12.20;99.90
9103;DHT22;4587;51.434;6.788;2022-12-29T08:30:08;12.20;99.90
9103;DHT22;4587;51.434;6.788;2022-12-29T08:32:33;12.20;99.90
9103;DHT22;4587;51.434;6.788;2022-12-29T08:34:59;12.20;99.90
9103;DHT22;4587;51.434;6.788;2022-12-29T08:37:25;12.10;99.90
9103;DHT22;4587;51.434;6.788;2022-12-29T08:39:50;12.10;99.90
9103;DHT22;4587;51.434;6.788;2022-12-29T08:42:16;12.10;99.90
9103;DHT22;4587;51.434;6.788;2022-12-29T08:44:41;12.10;99.90
9103;DHT22;4587;51.434;6.788;2022-12-29T08:47:08;12.10;99.90
9103;DHT22;4587;51.434;6.788;2022-12-29T08:49:34;12.10;99.90
9103;DHT22;4587;51.434;6.788;2022-12-29T08:51:59;12.20;99.90
9103;DHT22;4587;51.434;6.788;2022-12-29T08:54:25;12.30;99.90
9103;DHT22;4587;51.434;6.788;2022-12-29T08:56:51;12.20;99.90
9103;DHT22;4587;51.434;6.788;2022-12-29T08:59:16;12.40;99.90
9103;DHT22;4587;51.434;6.788;2022-12-29T09:01:42;12.40;99.90
9103;DHT22;4587;51.434;6.788;2022-12-29T09:04:08;12.30;99.90
9103;DHT22;4587;51.434;6.788;2022-12-29T09:06:34;12.20;99.90
9103;DHT22;4587;51.434;6.788;2022-12-29T09:09:00;12.20;99.90
9103;DHT22;4587;51.434;6.788;2022-12-29T09:11:26;12.40;99.90
9103;DHT22;4587;51.434;6.788;2022-12-29T09:13:53;12.60;99.90
9103;DHT22;4587;51.434;6.788;2022-12-29T09:16:20;12.80;99.90
9103;DHT22;4587;51.434;6.788;2022-12-29T09:18:46;12.90;99.90
9103;DHT22;4587;51.434;6.788;2022-12-29T09:21:12;12.80;99.90
9103;DHT22;4587;51.434;6.788;2022-12-29T09:23:38;12.70;99.90
9103;DHT22;4587;51.434;6.788;2022-12-29T09:26:05;12.50;99.90
9103;DHT22;4587;51.434;6.788;2022-12-29T09:28:31;12.50;99.90
9103;DHT22;4587;51.434;6.788;2022-12-29T09:30:57;12.40;99.90
9103;DHT22;4587;51.434;6.788;2022-12-29T09:33:23;12.30;99.90
9103;DHT22;4587;51.434;6.788;2022-12-29T09:35:57;12.20;99.90
9103;DHT22;4587;51.434;6.788;2022-12-29T09:38:24;12.10;99.90
9103;DHT22;4587;51.434;6.788;2022-12-29T09:40:52;12.20;99.90
9103;DHT22;4587;51.434;6.788;2022-12-29T09:46:26;12.20;99.90
9103;DHT22;4587;51.434;6.788;2022-12-29T09:51:48;12.20;99.90
9103;DHT22;4587;51.434;6.788;2022-12-29T09:54:39;12.20;99.90
9103;DHT22;4587;51.434;6.788;2022-12-29T09:58:06;12.20;99.90
9103;DHT22;4587;51.434;6.788;2022-12-29T10:00:37;12.20;99.90
9103;DHT22;4587;51.434;6.788;2022-12-29T10:03:11;12.20;99.90
9103;DHT22;4587;51.434;6.788;2022-12-29T10:05:58;12.20;99.90
9103;DHT22;4587;51.434;6.788;2022-12-29T10:08:39;12.30;99.90
9103;DHT22;4587;51.434;6.788;2022-12-29T10:14:13;12.20;99.90
9103;DHT22;4587;51.434;6.788;2022-12-29T10:17:00;12.30;99.90
9103;DHT22;4587;51.434;6.788;2022-12-29T10:24:52;12.40;99.90
9103;DHT22;4587;51.434;6.788;2022-12-29T10:27:18;12.40;99.90
9103;DHT22;4587;51.434;6.788;2022-12-29T10:29:56;12.40;99.90
9103;DHT22;4587;51.434;6.788;2022-12-29T10:34:56;12.40;99.90
9103;DHT22;4587;51.434;6.788;2022-12-29T10:39:53;12.30;99.90
9103;DHT22;4587;51.434;6.788;2022-12-29T10:42:29;12.30;99.90
9103;DHT22;4587;51.434;6.788;2022-12-29T10:44:58;12.30;99.90
9103;DHT22;4587;51.434;6.788;2022-12-29T10:47:36;12.30;99.90
9103;DHT22;4587;51.434;6.788;2022-12-29T10:50:04;12.30;99.90
9103;DHT22;4587;51.434;6.788;2022-12-29T10:52:30;12.30;99.90
9103;DHT22;4587;51.434;6.788;2022-12-29T10:55:05;12.20;99.90
9103;DHT22;4587;51.434;6.788;2022-12-29T10:57:36;12.30;99.90
9103;DHT22;4587;51.434;6.788;2022-12-29T11:00:11;12.40;99.90
9103;DHT22;4587;51.434;6.788;2022-12-29T11:08:30;12.40;99.90
9103;DHT22;4587;51.434;6.788;2022-12-29T11:10:59;12.40;99.90
9103;DHT22;4587;51.434;6.788;2022-12-29T11:13:28;12.40;99.90
9103;DHT22;4587;51.434;6.788;2022-12-29T11:15:54;12.40;99.90
9103;DHT22;4587;51.434;6.788;2022-12-29T11:20:57;12.40;99.90
9103;DHT22;4587;51.434;6.788;2022-12-29T11:23:32;12.40;99.90
9103;DHT22;4587;51.434;6.788;2022-12-29T11:28:40;12.40;99.90
9103;DHT22;4587;51.434;6.788;2022-12-29T11:31:07;12.40;99.90
9103;DHT22;4587;51.434;6.788;2022-12-29T11:33:36;12.40;99.90
9103;DHT22;4587;51.434;6.788;2022-12-29T11:36:12;12.40;99.90
9103;DHT22;4587;51.434;6.788;2022-12-29T11:38:41;12.50;99.90
9103;DHT22;4587;51.434;6.788;2022-12-29T11:41:20;12.60;99.90
9103;DHT22;4587;51.434;6.788;2022-12-29T11:43:46;12.60;99.90
9103;DHT22;4587;51.434;6.788;2022-12-29T11:46:17;12.60;99.90
9103;DHT22;4587;51.434;6.788;2022-12-29T11:48:43;12.60;99.90
9103;DHT22;4587;51.434;6.788;2022-12-29T11:51:09;12.60;99.90
9103;DHT22;4587;51.434;6.788;2022-12-29T11:53:48;12.60;99.90
9103;DHT22;4587;51.434;6.788;2022-12-29T11:56:22;12.60;99.90
9103;DHT22;4587;51.434;6.788;2022-12-29T11:58:55;12.70;99.90
9103;DHT22;4587;51.434;6.788;2022-12-29T12:01:39;12.60;99.90
9103;DHT22;4587;51.434;6.788;2022-12-29T12:04:16;12.70;99.90
9103;DHT22;4587;51.434;6.788;2022-12-29T12:07:04;12.80;99.90
9103;DHT22;4587;51.434;6.788;2022-12-29T12:09:51;12.80;99.90
9103;DHT22;4587;51.434;6.788;2022-12-29T12:12:24;12.80;99.90
9103;DHT22;4587;51.434;6.788;2022-12-29T12:14:57;12.70;99.90
9103;DHT22;4587;51.434;6.788;2022-12-29T12:17:52;12.70;99.90
9103;DHT22;4587;51.434;6.788;2022-12-29T12:23:28;12.60;99.90
9103;DHT22;4587;51.434;6.788;2022-12-29T12:25:57;12.60;99.90
9103;DHT22;4587;51.434;6.788;2022-12-29T12:28:55;12.60;99.90
9103;DHT22;4587;51.434;6.788;2022-12-29T12:34:05;12.60;99.90
9103;DHT22;4587;51.434;6.788;2022-12-29T12:37:09;12.70;99.90
9103;DHT22;4587;51.434;6.788;2022-12-29T12:40:11;12.60;99.90
9103;DHT22;4587;51.434;6.788;2022-12-29T12:42:57;12.60;99.90
9103;DHT22;4587;51.434;6.788;2022-12-29T12:48:44;12.60;99.90
9103;DHT22;4587;51.434;6.788;2022-12-29T12:54:34;12.50;99.90
9103;DHT22;4587;51.434;6.788;2022-12-29T13:05:57;12.40;99.90
9103;DHT22;4587;51.434;6.788;2022-12-29T13:08:33;12.50;99.90
9103;DHT22;4587;51.434;6.788;2022-12-29T13:19:17;12.40;99.90
9103;DHT22;4587;51.434;6.788;2022-12-29T13:22:09;12.40;99.90
9103;DHT22;4587;51.434;6.788;2022-12-29T13:27:53;12.40;99.90
9103;DHT22;4587;51.434;6.788;2022-12-29T13:30:28;12.50;99.90
9103;DHT22;4587;51.434;6.788;2022-12-29T13:36:20;12.40;99.90
9103;DHT22;4587;51.434;6.788;2022-12-29T13:38:50;12.40;99.90
9103;DHT22;4587;51.434;6.788;2022-12-29T13:41:41;12.30;99.90
9103;DHT22;4587;51.434;6.788;2022-12-29T13:44:14;12.40;99.90
9103;DHT22;4587;51.434;6.788;2022-12-29T13:46:43;12.40;99.90
9103;DHT22;4587;51.434;6.788;2022-12-29T13:49:18;12.40;99.90
9103;DHT22;4587;51.434;6.788;2022-12-29T13:51:55;12.40;99.90
9103;DHT22;4587;51.434;6.788;2022-12-29T13:54:40;12.30;99.90
9103;DHT22;4587;51.434;6.788;2022-12-29T14:00:02;12.20;99.90
9103;DHT22;4587;51.434;6.788;2022-12-29T14:08:03;12.20;99.90
9103;DHT22;4587;51.434;6.788;2022-12-29T14:10:33;12.20;99.90
9103;DHT22;4587;51.434;6.788;2022-12-29T14:13:21;12.10;99.90
9103;DHT22;4587;51.434;6.788;2022-12-29T14:16:05;12.00;99.90
9103;DHT22;4587;51.434;6.788;2022-12-29T14:18:33;11.90;99.90
9103;DHT22;4587;51.434;6.788;2022-12-29T14:21:04;11.90;99.90
9103;DHT22;4587;51.434;6.788;2022-12-29T14:23:41;11.90;99.90
9103;DHT22;4587;51.434;6.788;2022-12-29T14:28:39;11.90;99.90
9103;DHT22;4587;51.434;6.788;2022-12-29T14:34:14;12.00;99.90
9103;DHT22;4587;51.434;6.788;2022-12-29T14:39:00;11.90;99.90
9103;DHT22;4587;51.434;6.788;2022-12-29T14:41:38;11.90;99.90
9103;DHT22;4587;51.434;6.788;2022-12-29T14:44:24;12.00;99.90
9103;DHT22;4587;51.434;6.788;2022-12-29T14:49:21;12.00;99.90
9103;DHT22;4587;51.434;6.788;2022-12-29T14:51:50;12.00;99.90
9103;DHT22;4587;51.434;6.788;2022-12-29T14:57:02;12.00;99.90
9103;DHT22;4587;51.434;6.788;2022-12-29T14:59:29;11.90;99.90
9103;DHT22;4587;51.434;6.788;2022-12-29T15:01:56;11.90;99.90
9103;DHT22;4587;51.434;6.788;2022-12-29T15:04:27;11.90;99.90
9103;DHT22;4587;51.434;6.788;2022-12-29T15:06:55;11.90;99.90
9103;DHT22;4587;51.434;6.788;2022-12-29T15:12:04;11.80;99.90
9103;DHT22;4587;51.434;6.788;2022-12-29T15:14:39;11.80;99.90
9103;DHT22;4587;51.434;6.788;2022-12-29T15:17:24;11.80;99.90
9103;DHT22;4587;51.434;6.788;2022-12-29T15:19:51;11.90;99.90
9103;DHT22;4587;51.434;6.788;2022-12-29T15:22:16;11.80;99.90
9103;DHT22;4587;51.434;6.788;2022-12-29T15:24:43;11.80;99.90
9103;DHT22;4587;51.434;6.788;2022-12-29T15:27:16;11.80;99.90
9103;DHT22;4587;51.434;6.788;2022-12-29T15:29:45;11.80;99.90
9103;DHT22;4587;51.434;6.788;2022-12-29T15:32:27;11.80;99.90
9103;DHT22;4587;51.434;6.788;2022-12-29T15:34:55;11.70;99.90
9103;DHT22;4587;51.434;6.788;2022-12-29T15:37:33;11.60;99.90
9103;DHT22;4587;51.434;6.788;2022-12-29T15:39:58;11.60;99.90
9103;DHT22;4587;51.434;6.788;2022-12-29T15:42:49;11.60;99.90
9103;DHT22;4587;51.434;6.788;2022-12-29T15:45:17;11.70;99.90
9103;DHT22;4587;51.434;6.788;2022-12-29T15:47:45;11.60;99.90
9103;DHT22;4587;51.434;6.788;2022-12-29T15:50:27;11.70;99.90
9103;DHT22;4587;51.434;6.788;2022-12-29T15:52:53;11.60;99.90
9103;DHT22;4587;51.434;6.788;2022-12-29T15:55:28;11.50;99.90
9103;DHT22;4587;51.434;6.788;2022-12-29T15:57:57;11.50;99.90
9103;DHT22;4587;51.434;6.788;2022-12-29T16:00:31;11.50;99.90
9103;DHT22;4587;51.434;6.788;2022-12-29T16:03:01;11.50;99.90
9103;DHT22;4587;51.434;6.788;2022-12-29T16:05:34;11.50;99.90
9103;DHT22;4587;51.434;6.788;2022-12-29T16:08:01;11.40;99.90
9103;DHT22;4587;51.434;6.788;2022-12-29T16:10:39;11.40;99.90
9103;DHT22;4587;51.434;6.788;2022-12-29T16:15:46;11.30;99.90
9103;DHT22;4587;51.434;6.788;2022-12-29T16:18:30;11.20;99.90
9103;DHT22;4587;51.434;6.788;2022-12-29T16:20:58;11.10;99.90
9103;DHT22;4587;51.434;6.788;2022-12-29T16:23:28;11.00;99.90
9103;DHT22;4587;51.434;6.788;2022-12-29T16:25:56;11.00;99.90
9103;DHT22;4587;51.434;6.788;2022-12-29T16:28:28;11.10;99.90
9103;DHT22;4587;51.434;6.788;2022-12-29T16:30:59;11.10;99.90
9103;DHT22;4587;51.434;6.788;2022-12-29T16:33:45;11.00;99.90
9103;DHT22;4587;51.434;6.788;2022-12-29T16:36:53;11.00;99.90
9103;DHT22;4587;51.434;6.788;2022-12-29T16:39:37;10.90;99.90
9103;DHT22;4587;51.434;6.788;2022-12-29T16:42:33;10.90;99.90
9103;DHT22;4587;51.434;6.788;2022-12-29T16:50:37;11.10;99.90
9103;DHT22;4587;51.434;6.788;2022-12-29T16:53:03;11.10;99.90
9103;DHT22;4587;51.434;6.788;2022-12-29T16:55:30;11.10;99.90
9103;DHT22;4587;51.434;6.788;2022-12-29T16:57:56;11.10;99.90
9103;DHT22;4587;51.434;6.788;2022-12-29T17:00:29;11.10;99.90
9103;DHT22;4587;51.434;6.788;2022-12-29T17:02:58;10.90;99.90
9103;DHT22;4587;51.434;6.788;2022-12-29T17:05:24;10.70;99.90
9103;DHT22;4587;51.434;6.788;2022-12-29T17:07:50;10.50;99.90
9103;DHT22;4587;51.434;6.788;2022-12-29T17:10:20;10.30;99.90
9103;DHT22;4587;51.434;6.788;2022-12-29T17:12:47;10.10;99.90
9103;DHT22;4587;51.434;6.788;2022-12-29T17:15:25;9.90;99.90
9103;DHT22;4587;51.434;6.788;2022-12-29T17:17:52;9.80;99.90
9103;DHT22;4587;51.434;6.788;2022-12-29T17:20:37;9.70;99.90
9103;DHT22;4587;51.434;6.788;2022-12-29T17:23:14;9.70;99.90
9103;DHT22;4587;51.434;6.788;2022-12-29T17:25:41;9.60;99.90
9103;DHT22;4587;51.434;6.788;2022-12-29T17:28:18;9.60;99.90
9103;DHT22;4587;51.434;6.788;2022-12-29T17:30:45;9.50;99.90
9103;DHT22;4587;51.434;6.788;2022-12-29T17:33:16;9.40;99.90
9103;DHT22;4587;51.434;6.788;2022-12-29T17:35:42;9.30;99.90
9103;DHT22;4587;51.434;6.788;2022-12-29T17:38:19;9.30;99.90
9103;DHT22;4587;51.434;6.788;2022-12-29T17:40:46;9.40;99.90
9103;DHT22;4587;51.434;6.788;2022-12-29T17:43:13;9.40;99.90
9103;DHT22;4587;51.434;6.788;2022-12-29T17:45:40;9.30;99.90
9103;DHT22;4587;51.434;6.788;2022-12-29T17:48:16;9.40;99.90
9103;DHT22;4587;51.434;6.788;2022-12-29T17:50:42;9.40;99.90
9103;DHT22;4587;51.434;6.788;2022-12-29T17:53:34;9.30;99.90
9103;DHT22;4587;51.434;6.788;2022-12-29T17:56:00;9.30;99.90
9103;DHT22;4587;51.434;6.788;2022-12-29T17:58:29;9.40;99.90
9103;DHT22;4587;51.434;6.788;2022-12-29T18:00:59;9.40;99.90
9103;DHT22;4587;51.434;6.788;2022-12-29T18:03:34;9.30;99.90
9103;DHT22;4587;51.434;6.788;2022-12-29T18:06:01;9.20;99.90
9103;DHT22;4587;51.434;6.788;2022-12-29T18:08:26;9.20;99.90
9103;DHT22;4587;51.434;6.788;2022-12-29T18:10:56;9.20;99.90
9103;DHT22;4587;51.434;6.788;2022-12-29T18:13:27;9.20;99.90
9103;DHT22;4587;51.434;6.788;2022-12-29T18:15:54;9.10;99.90
9103;DHT22;4587;51.434;6.788;2022-12-29T18:18:22;9.10;99.90
9103;DHT22;4587;51.434;6.788;2022-12-29T18:20:49;9.10;99.90
9103;DHT22;4587;51.434;6.788;2022-12-29T18:23:27;9.00;99.90
9103;DHT22;4587;51.434;6.788;2022-12-29T18:28:28;9.00;99.90
9103;DHT22;4587;51.434;6.788;2022-12-29T18:30:57;8.90;99.90
9103;DHT22;4587;51.434;6.788;2022-12-29T18:33:24;8.90;99.90